sensor_id;sensor_type;location;lat;lon;timestamp;pressure;altitude;pressure_sealevel;temperature;humidity
62926;BME280;55732;52.248;-0.844;2023-04-25T00:01:28;100748.44;;;4.40;67.89
62926;BME280;55732;52.248;-0.844;2023-04-25T00:03:53;100752.58;;;4.37;67.99
62926;BME280;55732;52.248;-0.844;2023-04-25T00:06:18;100754.31;;;4.37;68.13
62926;BME280;55732;52.248;-0.844;2023-04-25T00:08:44;100753.70;;;4.33;68.03
62926;BME280;55732;52.248;-0.844;2023-04-25T00:11:10;100754.67;;;4.31;68.40
62926;BME280;55732;52.248;-0.844;2023-04-25T00:13:35;100751.83;;;4.29;68.48
62926;BME280;55732;52.248;-0.844;2023-04-25T00:16:01;100755.23;;;4.26;68.59
62926;BME280;55732;52.248;-0.844;2023-04-25T00:18:29;100755.02;;;4.24;68.75
62926;BME280;55732;52.248;-0.844;2023-04-25T00:20:54;100754.61;;;4.22;68.84
62926;BME280;55732;52.248;-0.844;2023-04-25T00:23:20;100757.73;;;4.21;69.05
62926;BME280;55732;52.248;-0.844;2023-04-25T00:25:49;100758.57;;;4.20;69.02
62926;BME280;55732;52.248;-0.844;2023-04-25T00:28:15;100758.92;;;4.20;69.00
62926;BME280;55732;52.248;-0.844;2023-04-25T00:30:42;100758.04;;;4.20;68.90
62926;BME280;55732;52.248;-0.844;2023-04-25T00:33:08;100757.84;;;4.19;68.89
62926;BME280;55732;52.248;-0.844;2023-04-25T00:35:35;100754.14;;;4.18;69.10
62926;BME280;55732;52.248;-0.844;2023-04-25T00:38:01;100755.46;;;4.15;69.18
62926;BME280;55732;52.248;-0.844;2023-04-25T00:40:27;100757.69;;;4.14;69.21
62926;BME280;55732;52.248;-0.844;2023-04-25T00:42:52;100758.18;;;4.13;69.24
62926;BME280;55732;52.248;-0.844;2023-04-25T00:45:18;100758.02;;;4.12;69.29
62926;BME280;55732;52.248;-0.844;2023-04-25T00:47:45;100759.02;;;4.11;69.27
62926;BME280;55732;52.248;-0.844;2023-04-25T00:50:11;100757.91;;;4.09;69.34
62926;BME280;55732;52.248;-0.844;2023-04-25T00:52:43;100758.55;;;4.08;69.42
62926;BME280;55732;52.248;-0.844;2023-04-25T00:55:10;100757.45;;;4.05;69.30
62926;BME280;55732;52.248;-0.844;2023-04-25T00:57:36;100759.48;;;4.03;69.45
62926;BME280;55732;52.248;-0.844;2023-04-25T01:00:03;100764.45;;;4.00;69.59
62926;BME280;55732;52.248;-0.844;2023-04-25T01:02:31;100767.15;;;3.97;69.55
62926;BME280;55732;52.248;-0.844;2023-04-25T01:04:57;100764.48;;;3.95;69.44
62926;BME280;55732;52.248;-0.844;2023-04-25T01:07:23;100768.95;;;3.93;69.83
62926;BME280;55732;52.248;-0.844;2023-04-25T01:09:49;100767.16;;;3.91;69.69
62926;BME280;55732;52.248;-0.844;2023-04-25T01:12:16;100770.45;;;3.91;69.62
62926;BME280;55732;52.248;-0.844;2023-04-25T01:14:42;100772.86;;;3.89;69.67
62926;BME280;55732;52.248;-0.844;2023-04-25T01:17:08;100773.35;;;3.88;69.66
62926;BME280;55732;52.248;-0.844;2023-04-25T01:19:34;100775.02;;;3.86;69.79
62926;BME280;55732;52.248;-0.844;2023-04-25T01:21:59;100773.71;;;3.83;69.88
62926;BME280;55732;52.248;-0.844;2023-04-25T01:24:25;100773.48;;;3.81;69.98
62926;BME280;55732;52.248;-0.844;2023-04-25T01:26:52;100774.79;;;3.78;70.05
62926;BME280;55732;52.248;-0.844;2023-04-25T01:29:19;100776.60;;;3.74;70.16
62926;BME280;55732;52.248;-0.844;2023-04-25T01:31:45;100774.62;;;3.72;70.11
62926;BME280;55732;52.248;-0.844;2023-04-25T01:34:12;100774.23;;;3.71;70.22
62926;BME280;55732;52.248;-0.844;2023-04-25T01:36:37;100775.04;;;3.69;70.26
62926;BME280;55732;52.248;-0.844;2023-04-25T01:39:03;100784.55;;;3.67;70.16
62926;BME280;55732;52.248;-0.844;2023-04-25T01:41:28;100788.85;;;3.64;70.13
62926;BME280;55732;52.248;-0.844;2023-04-25T01:43:54;100785.80;;;3.61;70.20
62926;BME280;55732;52.248;-0.844;2023-04-25T01:46:20;100784.01;;;3.59;70.29
62926;BME280;55732;52.248;-0.844;2023-04-25T01:48:46;100786.70;;;3.57;70.47
62926;BME280;55732;52.248;-0.844;2023-04-25T01:51:12;100784.34;;;3.54;70.52
62926;BME280;55732;52.248;-0.844;2023-04-25T01:53:38;100782.20;;;3.51;70.54
62926;BME280;55732;52.248;-0.844;2023-04-25T01:56:04;100786.82;;;3.49;70.63
62926;BME280;55732;52.248;-0.844;2023-04-25T01:58:30;100787.59;;;3.46;70.69
62926;BME280;55732;52.248;-0.844;2023-04-25T02:00:56;100789.56;;;3.42;70.73
62926;BME280;55732;52.248;-0.844;2023-04-25T02:03:21;100789.55;;;3.41;70.77
62926;BME280;55732;52.248;-0.844;2023-04-25T02:05:46;100787.04;;;3.39;70.84
62926;BME280;55732;52.248;-0.844;2023-04-25T02:08:12;100788.71;;;3.37;70.91
62926;BME280;55732;52.248;-0.844;2023-04-25T02:10:37;100775.71;;;3.33;70.96
62926;BME280;55732;52.248;-0.844;2023-04-25T02:13:03;100784.69;;;3.36;70.82
62926;BME280;55732;52.248;-0.844;2023-04-25T02:15:29;100785.20;;;3.36;70.55
62926;BME280;55732;52.248;-0.844;2023-04-25T02:17:55;100788.80;;;3.35;70.61
62926;BME280;55732;52.248;-0.844;2023-04-25T02:20:21;100788.95;;;3.34;70.62
62926;BME280;55732;52.248;-0.844;2023-04-25T02:22:47;100792.89;;;3.32;70.63
62926;BME280;55732;52.248;-0.844;2023-04-25T02:25:12;100793.51;;;3.29;70.66
62926;BME280;55732;52.248;-0.844;2023-04-25T02:27:38;100798.45;;;3.26;70.88
62926;BME280;55732;52.248;-0.844;2023-04-25T02:30:04;100796.47;;;3.24;70.93
62926;BME280;55732;52.248;-0.844;2023-04-25T02:32:32;100795.35;;;3.22;70.96
62926;BME280;55732;52.248;-0.844;2023-04-25T02:35:00;100799.86;;;3.21;70.95
62926;BME280;55732;52.248;-0.844;2023-04-25T02:37:32;100799.29;;;3.20;70.96
62926;BME280;55732;52.248;-0.844;2023-04-25T02:39:58;100799.80;;;3.19;70.92
62926;BME280;55732;52.248;-0.844;2023-04-25T02:42:23;100801.85;;;3.18;70.95
62926;BME280;55732;52.248;-0.844;2023-04-25T02:44:49;100800.09;;;3.17;70.94
62926;BME280;55732;52.248;-0.844;2023-04-25T02:47:14;100799.69;;;3.15;71.00
62926;BME280;55732;52.248;-0.844;2023-04-25T02:49:40;100800.98;;;3.12;71.04
62926;BME280;55732;52.248;-0.844;2023-04-25T02:52:05;100802.14;;;3.11;70.93
62926;BME280;55732;52.248;-0.844;2023-04-25T02:54:31;100808.20;;;3.10;70.98
62926;BME280;55732;52.248;-0.844;2023-04-25T02:56:56;100808.16;;;3.09;70.93
62926;BME280;55732;52.248;-0.844;2023-04-25T02:59:22;100808.60;;;3.06;70.98
62926;BME280;55732;52.248;-0.844;2023-04-25T03:01:47;100813.45;;;3.05;71.03
62926;BME280;55732;52.248;-0.844;2023-04-25T03:04:13;100808.19;;;3.04;70.82
62926;BME280;55732;52.248;-0.844;2023-04-25T03:06:38;100809.35;;;3.03;70.90
62926;BME280;55732;52.248;-0.844;2023-04-25T03:09:04;100807.93;;;3.02;71.24
62926;BME280;55732;52.248;-0.844;2023-04-25T03:11:29;100807.23;;;3.02;71.26
62926;BME280;55732;52.248;-0.844;2023-04-25T03:13:55;100801.10;;;3.00;71.24
62926;BME280;55732;52.248;-0.844;2023-04-25T03:16:21;100803.13;;;2.98;71.32
62926;BME280;55732;52.248;-0.844;2023-04-25T03:18:47;100804.98;;;2.97;71.26
62926;BME280;55732;52.248;-0.844;2023-04-25T03:21:12;100802.31;;;2.95;71.33
62926;BME280;55732;52.248;-0.844;2023-04-25T03:23:37;100807.50;;;2.94;71.25
62926;BME280;55732;52.248;-0.844;2023-04-25T03:26:03;100811.05;;;2.91;71.41
62926;BME280;55732;52.248;-0.844;2023-04-25T03:28:29;100818.32;;;2.90;71.43
62926;BME280;55732;52.248;-0.844;2023-04-25T03:30:54;100823.67;;;2.88;71.49
62926;BME280;55732;52.248;-0.844;2023-04-25T03:33:19;100825.57;;;2.88;71.34
62926;BME280;55732;52.248;-0.844;2023-04-25T03:35:45;100829.27;;;2.89;71.64
62926;BME280;55732;52.248;-0.844;2023-04-25T03:38:10;100832.39;;;2.89;71.65
62926;BME280;55732;52.248;-0.844;2023-04-25T03:40:36;100831.46;;;2.88;71.74
62926;BME280;55732;52.248;-0.844;2023-04-25T03:43:01;100833.80;;;2.85;71.78
62926;BME280;55732;52.248;-0.844;2023-04-25T03:45:27;100838.95;;;2.82;71.73
62926;BME280;55732;52.248;-0.844;2023-04-25T03:47:52;100843.18;;;2.79;71.74
62926;BME280;55732;52.248;-0.844;2023-04-25T03:50:18;100839.76;;;2.76;71.91
62926;BME280;55732;52.248;-0.844;2023-04-25T03:52:43;100841.92;;;2.73;72.00
62926;BME280;55732;52.248;-0.844;2023-04-25T03:55:09;100844.11;;;2.71;71.90
62926;BME280;55732;52.248;-0.844;2023-04-25T03:57:35;100845.77;;;2.68;71.98
62926;BME280;55732;52.248;-0.844;2023-04-25T04:00:00;100844.30;;;2.66;71.97
62926;BME280;55732;52.248;-0.844;2023-04-25T04:02:26;100848.73;;;2.64;71.96
62926;BME280;55732;52.248;-0.844;2023-04-25T04:04:51;100855.09;;;2.62;72.05
62926;BME280;55732;52.248;-0.844;2023-04-25T04:07:17;100862.50;;;2.60;71.96
62926;BME280;55732;52.248;-0.844;2023-04-25T04:09:42;100856.36;;;2.58;71.84
62926;BME280;55732;52.248;-0.844;2023-04-25T04:12:07;100862.58;;;2.57;72.02
62926;BME280;55732;52.248;-0.844;2023-04-25T04:14:33;100861.48;;;2.56;71.98
62926;BME280;55732;52.248;-0.844;2023-04-25T04:16:58;100865.08;;;2.54;71.92
62926;BME280;55732;52.248;-0.844;2023-04-25T04:19:24;100871.73;;;2.50;72.02
62926;BME280;55732;52.248;-0.844;2023-04-25T04:21:49;100870.25;;;2.48;72.07
62926;BME280;55732;52.248;-0.844;2023-04-25T04:24:14;100873.17;;;2.48;72.07
62926;BME280;55732;52.248;-0.844;2023-04-25T04:26:42;100868.27;;;2.46;72.04
62926;BME280;55732;52.248;-0.844;2023-04-25T04:29:09;100866.81;;;2.44;71.95
62926;BME280;55732;52.248;-0.844;2023-04-25T04:31:35;100865.88;;;2.43;72.04
62926;BME280;55732;52.248;-0.844;2023-04-25T04:34:01;100864.23;;;2.41;72.10
62926;BME280;55732;52.248;-0.844;2023-04-25T04:36:27;100862.11;;;2.39;72.12
62926;BME280;55732;52.248;-0.844;2023-04-25T04:38:53;100865.73;;;2.39;72.15
62926;BME280;55732;52.248;-0.844;2023-04-25T04:41:19;100872.10;;;2.37;72.19
62926;BME280;55732;52.248;-0.844;2023-04-25T04:43:44;100868.08;;;2.36;72.19
62926;BME280;55732;52.248;-0.844;2023-04-25T04:46:10;100866.48;;;2.35;72.34
62926;BME280;55732;52.248;-0.844;2023-04-25T04:48:38;100862.35;;;2.36;72.26
62926;BME280;55732;52.248;-0.844;2023-04-25T04:51:05;100862.41;;;2.38;72.19
62926;BME280;55732;52.248;-0.844;2023-04-25T04:53:31;100868.20;;;2.40;72.11
62926;BME280;55732;52.248;-0.844;2023-04-25T04:55:57;100865.18;;;2.42;72.25
62926;BME280;55732;52.248;-0.844;2023-04-25T04:58:23;100866.73;;;2.47;72.24
62926;BME280;55732;52.248;-0.844;2023-04-25T05:00:49;100871.59;;;2.51;72.23
62926;BME280;55732;52.248;-0.844;2023-04-25T05:03:14;100870.77;;;2.58;72.19
62926;BME280;55732;52.248;-0.844;2023-04-25T05:05:41;100878.88;;;2.66;72.03
62926;BME280;55732;52.248;-0.844;2023-04-25T05:08:06;100882.69;;;2.75;71.91
62926;BME280;55732;52.248;-0.844;2023-04-25T05:10:32;100874.17;;;2.91;71.77
62926;BME280;55732;52.248;-0.844;2023-04-25T05:12:57;100877.02;;;3.18;71.49
62926;BME280;55732;52.248;-0.844;2023-04-25T05:15:23;100880.00;;;3.51;70.83
62926;BME280;55732;52.248;-0.844;2023-04-25T05:17:48;100896.61;;;3.81;70.40
62926;BME280;55732;52.248;-0.844;2023-04-25T05:20:14;100899.04;;;4.44;69.50
62926;BME280;55732;52.248;-0.844;2023-04-25T05:22:39;100900.98;;;5.23;68.25
62926;BME280;55732;52.248;-0.844;2023-04-25T05:25:07;100897.92;;;6.66;65.81
62926;BME280;55732;52.248;-0.844;2023-04-25T05:27:33;100899.34;;;8.14;63.46
62926;BME280;55732;52.248;-0.844;2023-04-25T05:29:58;100900.81;;;9.43;61.21
62926;BME280;55732;52.248;-0.844;2023-04-25T05:32:24;100893.34;;;10.80;58.75
62926;BME280;55732;52.248;-0.844;2023-04-25T05:34:50;100887.21;;;12.14;56.28
62926;BME280;55732;52.248;-0.844;2023-04-25T05:37:16;100881.98;;;13.36;53.34
62926;BME280;55732;52.248;-0.844;2023-04-25T05:39:42;100874.81;;;14.51;50.70
62926;BME280;55732;52.248;-0.844;2023-04-25T05:42:07;100881.38;;;15.50;48.72
62926;BME280;55732;52.248;-0.844;2023-04-25T05:44:33;100886.70;;;16.10;47.63
62926;BME280;55732;52.248;-0.844;2023-04-25T05:46:58;100896.83;;;16.74;46.02
62926;BME280;55732;52.248;-0.844;2023-04-25T05:49:24;100901.39;;;16.67;45.37
62926;BME280;55732;52.248;-0.844;2023-04-25T05:51:49;100895.61;;;17.48;43.95
62926;BME280;55732;52.248;-0.844;2023-04-25T05:54:15;100893.65;;;18.43;41.99
62926;BME280;55732;52.248;-0.844;2023-04-25T05:56:40;100896.66;;;18.44;41.47
62926;BME280;55732;52.248;-0.844;2023-04-25T05:59:05;100898.61;;;18.45;41.00
62926;BME280;55732;52.248;-0.844;2023-04-25T06:01:31;100904.13;;;18.83;40.81
62926;BME280;55732;52.248;-0.844;2023-04-25T06:03:57;100910.85;;;19.53;39.34
62926;BME280;55732;52.248;-0.844;2023-04-25T06:06:22;100914.36;;;20.71;37.67
62926;BME280;55732;52.248;-0.844;2023-04-25T06:08:47;100908.29;;;21.95;36.53
62926;BME280;55732;52.248;-0.844;2023-04-25T06:11:13;100908.77;;;22.85;35.34
62926;BME280;55732;52.248;-0.844;2023-04-25T06:13:38;100906.79;;;23.16;33.99
62926;BME280;55732;52.248;-0.844;2023-04-25T06:16:04;100907.15;;;23.16;33.42
62926;BME280;55732;52.248;-0.844;2023-04-25T06:18:29;100914.13;;;22.74;33.31
62926;BME280;55732;52.248;-0.844;2023-04-25T06:20:55;100914.78;;;22.24;32.98
62926;BME280;55732;52.248;-0.844;2023-04-25T06:23:20;100920.14;;;21.30;33.83
62926;BME280;55732;52.248;-0.844;2023-04-25T06:25:46;100924.39;;;20.57;33.74
62926;BME280;55732;52.248;-0.844;2023-04-25T06:28:11;100916.87;;;19.59;34.17
62926;BME280;55732;52.248;-0.844;2023-04-25T06:30:37;100918.83;;;18.80;34.89
62926;BME280;55732;52.248;-0.844;2023-04-25T06:33:02;100916.98;;;19.12;34.36
62926;BME280;55732;52.248;-0.844;2023-04-25T06:35:28;100922.83;;;18.89;34.33
62926;BME280;55732;52.248;-0.844;2023-04-25T06:37:53;100927.12;;;18.51;34.78
62926;BME280;55732;52.248;-0.844;2023-04-25T06:40:19;100938.25;;;17.53;35.51
62926;BME280;55732;52.248;-0.844;2023-04-25T06:42:44;100941.05;;;16.93;36.62
62926;BME280;55732;52.248;-0.844;2023-04-25T06:45:10;100942.86;;;16.66;37.06
62926;BME280;55732;52.248;-0.844;2023-04-25T06:47:35;100950.37;;;16.54;37.36
62926;BME280;55732;52.248;-0.844;2023-04-25T06:50:01;100951.46;;;16.33;37.77
62926;BME280;55732;52.248;-0.844;2023-04-25T06:52:26;100951.78;;;15.87;38.31
62926;BME280;55732;52.248;-0.844;2023-04-25T06:54:51;100954.37;;;15.46;38.88
62926;BME280;55732;52.248;-0.844;2023-04-25T06:57:17;100964.08;;;15.38;39.15
62926;BME280;55732;52.248;-0.844;2023-04-25T06:59:42;100965.43;;;15.55;39.12
62926;BME280;55732;52.248;-0.844;2023-04-25T07:02:08;100966.16;;;15.66;39.16
62926;BME280;55732;52.248;-0.844;2023-04-25T07:04:33;100964.05;;;15.64;38.68
62926;BME280;55732;52.248;-0.844;2023-04-25T07:06:59;100958.41;;;16.14;38.42
62926;BME280;55732;52.248;-0.844;2023-04-25T07:09:26;100963.20;;;16.79;37.83
62926;BME280;55732;52.248;-0.844;2023-04-25T07:11:51;100968.11;;;17.00;37.58
62926;BME280;55732;52.248;-0.844;2023-04-25T07:14:16;100966.56;;;16.62;37.62
62926;BME280;55732;52.248;-0.844;2023-04-25T07:16:42;100969.38;;;16.63;37.89
62926;BME280;55732;52.248;-0.844;2023-04-25T07:19:07;100969.48;;;16.78;37.77
62926;BME280;55732;52.248;-0.844;2023-04-25T07:21:33;100970.77;;;16.84;37.58
62926;BME280;55732;52.248;-0.844;2023-04-25T07:23:58;100965.64;;;16.82;37.33
62926;BME280;55732;52.248;-0.844;2023-04-25T07:26:23;100968.02;;;16.71;37.40
62926;BME280;55732;52.248;-0.844;2023-04-25T07:28:49;100972.13;;;17.03;36.59
62926;BME280;55732;52.248;-0.844;2023-04-25T07:31:19;100966.65;;;18.13;34.84
62926;BME280;55732;52.248;-0.844;2023-04-25T07:33:44;100969.20;;;18.59;34.74
62926;BME280;55732;52.248;-0.844;2023-04-25T07:36:13;100974.98;;;18.42;33.99
62926;BME280;55732;52.248;-0.844;2023-04-25T07:38:40;100978.95;;;17.63;34.72
62926;BME280;55732;52.248;-0.844;2023-04-25T07:41:05;100980.99;;;16.51;36.28
62926;BME280;55732;52.248;-0.844;2023-04-25T07:43:31;100988.11;;;15.91;37.57
62926;BME280;55732;52.248;-0.844;2023-04-25T07:45:56;100993.23;;;15.61;38.22
62926;BME280;55732;52.248;-0.844;2023-04-25T07:48:22;100990.27;;;15.79;38.26
62926;BME280;55732;52.248;-0.844;2023-04-25T07:50:48;100998.49;;;16.18;37.24
62926;BME280;55732;52.248;-0.844;2023-04-25T07:53:13;100995.61;;;16.30;37.78
62926;BME280;55732;52.248;-0.844;2023-04-25T07:55:38;101003.91;;;16.71;37.02
62926;BME280;55732;52.248;-0.844;2023-04-25T07:58:08;101010.74;;;17.75;35.46
62926;BME280;55732;52.248;-0.844;2023-04-25T08:00:35;101008.98;;;19.14;33.36
62926;BME280;55732;52.248;-0.844;2023-04-25T08:03:00;101003.94;;;20.43;32.73
62926;BME280;55732;52.248;-0.844;2023-04-25T08:05:26;101011.52;;;21.61;32.23
62926;BME280;55732;52.248;-0.844;2023-04-25T08:07:51;101009.35;;;23.12;30.67
62926;BME280;55732;52.248;-0.844;2023-04-25T08:10:17;101009.48;;;24.20;29.56
62926;BME280;55732;52.248;-0.844;2023-04-25T08:12:42;101011.30;;;26.16;28.06
62926;BME280;55732;52.248;-0.844;2023-04-25T08:15:08;101005.30;;;28.01;26.17
62926;BME280;55732;52.248;-0.844;2023-04-25T08:17:34;101004.91;;;29.70;24.95
62926;BME280;55732;52.248;-0.844;2023-04-25T08:19:59;101010.48;;;30.96;23.30
62926;BME280;55732;52.248;-0.844;2023-04-25T08:22:24;101013.16;;;31.84;21.78
62926;BME280;55732;52.248;-0.844;2023-04-25T08:24:50;101014.75;;;32.66;21.19
62926;BME280;55732;52.248;-0.844;2023-04-25T08:27:15;101021.09;;;33.61;20.80
62926;BME280;55732;52.248;-0.844;2023-04-25T08:29:42;101012.73;;;34.45;19.09
62926;BME280;55732;52.248;-0.844;2023-04-25T08:32:07;101019.70;;;35.11;18.59
62926;BME280;55732;52.248;-0.844;2023-04-25T08:34:33;101021.98;;;35.71;18.31
62926;BME280;55732;52.248;-0.844;2023-04-25T08:36:58;101019.30;;;36.14;18.03
62926;BME280;55732;52.248;-0.844;2023-04-25T08:39:23;101020.86;;;36.57;17.44
62926;BME280;55732;52.248;-0.844;2023-04-25T08:41:49;101020.33;;;36.60;16.68
62926;BME280;55732;52.248;-0.844;2023-04-25T08:44:16;101024.72;;;36.59;16.23
62926;BME280;55732;52.248;-0.844;2023-04-25T08:46:42;101025.52;;;36.16;15.25
62926;BME280;55732;52.248;-0.844;2023-04-25T08:49:11;101027.14;;;35.32;15.09
62926;BME280;55732;52.248;-0.844;2023-04-25T08:51:44;101023.97;;;35.10;15.66
62926;BME280;55732;52.248;-0.844;2023-04-25T08:54:13;101024.34;;;35.44;15.79
62926;BME280;55732;52.248;-0.844;2023-04-25T08:56:41;101025.48;;;35.65;15.76
62926;BME280;55732;52.248;-0.844;2023-04-25T08:59:09;101023.57;;;35.97;16.28
62926;BME280;55732;52.248;-0.844;2023-04-25T09:01:35;101024.25;;;35.94;15.71
62926;BME280;55732;52.248;-0.844;2023-04-25T09:04:01;101020.63;;;35.91;15.26
62926;BME280;55732;52.248;-0.844;2023-04-25T09:06:29;101022.11;;;36.08;15.16
62926;BME280;55732;52.248;-0.844;2023-04-25T09:09:04;101018.03;;;36.08;14.89
62926;BME280;55732;52.248;-0.844;2023-04-25T09:11:31;101020.34;;;35.99;15.23
62926;BME280;55732;52.248;-0.844;2023-04-25T09:14:17;101018.69;;;36.09;14.55
62926;BME280;55732;52.248;-0.844;2023-04-25T09:19:25;101013.09;;;34.68;14.81
62926;BME280;55732;52.248;-0.844;2023-04-25T09:21:53;101015.63;;;33.86;15.14
62926;BME280;55732;52.248;-0.844;2023-04-25T09:24:40;101015.34;;;32.18;16.21
62926;BME280;55732;52.248;-0.844;2023-04-25T09:27:10;101013.31;;;32.25;16.14
62926;BME280;55732;52.248;-0.844;2023-04-25T09:29:38;101014.25;;;31.59;16.28
62926;BME280;55732;52.248;-0.844;2023-04-25T09:32:23;101009.65;;;31.16;16.78
62926;BME280;55732;52.248;-0.844;2023-04-25T09:34:51;101007.86;;;31.91;16.50
62926;BME280;55732;52.248;-0.844;2023-04-25T09:37:21;101003.80;;;32.47;15.85
62926;BME280;55732;52.248;-0.844;2023-04-25T09:39:53;101003.77;;;32.60;16.20
62926;BME280;55732;52.248;-0.844;2023-04-25T09:42:25;100995.63;;;31.93;16.18
62926;BME280;55732;52.248;-0.844;2023-04-25T09:44:54;100997.31;;;31.40;16.31
62926;BME280;55732;52.248;-0.844;2023-04-25T09:47:23;100994.50;;;31.32;16.61
62926;BME280;55732;52.248;-0.844;2023-04-25T09:49:49;100996.78;;;31.18;16.54
62926;BME280;55732;52.248;-0.844;2023-04-25T09:52:17;101004.89;;;31.65;15.93
62926;BME280;55732;52.248;-0.844;2023-04-25T09:54:44;101000.87;;;31.63;15.54
62926;BME280;55732;52.248;-0.844;2023-04-25T09:59:50;101006.45;;;30.01;15.89
62926;BME280;55732;52.248;-0.844;2023-04-25T10:02:24;101007.14;;;29.59;15.52
62926;BME280;55732;52.248;-0.844;2023-04-25T10:04:52;101004.70;;;27.34;17.07
62926;BME280;55732;52.248;-0.844;2023-04-25T10:07:23;101003.63;;;27.41;17.19
62926;BME280;55732;52.248;-0.844;2023-04-25T10:10:04;101009.89;;;28.11;16.80
62926;BME280;55732;52.248;-0.844;2023-04-25T10:12:32;101007.80;;;27.48;17.60
62926;BME280;55732;52.248;-0.844;2023-04-25T10:14:59;101012.33;;;25.61;19.00
62926;BME280;55732;52.248;-0.844;2023-04-25T10:17:28;101009.13;;;25.39;19.30
62926;BME280;55732;52.248;-0.844;2023-04-25T10:19:54;101006.21;;;25.80;19.07
62926;BME280;55732;52.248;-0.844;2023-04-25T10:22:31;101009.40;;;24.39;19.83
62926;BME280;55732;52.248;-0.844;2023-04-25T10:24:58;101012.41;;;23.94;20.27
62926;BME280;55732;52.248;-0.844;2023-04-25T10:27:26;101009.16;;;24.65;18.88
62926;BME280;55732;52.248;-0.844;2023-04-25T10:32:32;101011.06;;;25.07;19.71
62926;BME280;55732;52.248;-0.844;2023-04-25T10:35:19;101011.69;;;24.36;20.25
62926;BME280;55732;52.248;-0.844;2023-04-25T10:40:31;101022.77;;;21.48;21.70
62926;BME280;55732;52.248;-0.844;2023-04-25T10:46:24;101022.55;;;18.96;24.16
62926;BME280;55732;52.248;-0.844;2023-04-25T10:48:56;101021.39;;;18.48;25.16
62926;BME280;55732;52.248;-0.844;2023-04-25T10:51:31;101022.71;;;18.38;25.43
62926;BME280;55732;52.248;-0.844;2023-04-25T10:53:59;101033.99;;;18.29;25.49
62926;BME280;55732;52.248;-0.844;2023-04-25T10:59:14;101036.84;;;17.22;26.11
62926;BME280;55732;52.248;-0.844;2023-04-25T11:01:44;101030.45;;;16.78;27.06
62926;BME280;55732;52.248;-0.844;2023-04-25T11:04:25;101027.90;;;16.62;27.45
62926;BME280;55732;52.248;-0.844;2023-04-25T11:09:27;101025.23;;;16.42;27.27
62926;BME280;55732;52.248;-0.844;2023-04-25T11:11:54;101021.53;;;16.41;27.55
62926;BME280;55732;52.248;-0.844;2023-04-25T11:14:20;101030.00;;;16.44;27.21
62926;BME280;55732;52.248;-0.844;2023-04-25T11:16:46;101023.85;;;16.50;27.74
62926;BME280;55732;52.248;-0.844;2023-04-25T11:19:11;101029.08;;;16.56;27.53
62926;BME280;55732;52.248;-0.844;2023-04-25T11:21:36;101026.04;;;16.37;27.83
62926;BME280;55732;52.248;-0.844;2023-04-25T11:24:02;101036.83;;;16.10;27.84
62926;BME280;55732;52.248;-0.844;2023-04-25T11:26:28;101036.55;;;15.83;28.32
62926;BME280;55732;52.248;-0.844;2023-04-25T11:28:59;101034.45;;;15.43;28.56
62926;BME280;55732;52.248;-0.844;2023-04-25T11:31:25;101030.64;;;15.49;28.84
62926;BME280;55732;52.248;-0.844;2023-04-25T11:33:53;101028.23;;;15.80;28.89
62926;BME280;55732;52.248;-0.844;2023-04-25T11:36:19;101022.97;;;15.99;28.76
62926;BME280;55732;52.248;-0.844;2023-04-25T11:38:45;101028.05;;;15.69;29.26
62926;BME280;55732;52.248;-0.844;2023-04-25T11:41:10;101020.83;;;15.26;29.66
62926;BME280;55732;52.248;-0.844;2023-04-25T11:43:36;101024.94;;;14.97;29.72
62926;BME280;55732;52.248;-0.844;2023-04-25T11:46:06;101027.97;;;14.64;30.39
62926;BME280;55732;52.248;-0.844;2023-04-25T11:48:40;101032.05;;;14.44;30.59
62926;BME280;55732;52.248;-0.844;2023-04-25T11:51:05;101039.83;;;14.06;30.53
62926;BME280;55732;52.248;-0.844;2023-04-25T11:53:31;101037.84;;;13.90;30.79
62926;BME280;55732;52.248;-0.844;2023-04-25T11:55:56;101026.55;;;14.25;30.90
62926;BME280;55732;52.248;-0.844;2023-04-25T11:58:22;101030.05;;;14.69;30.85
62926;BME280;55732;52.248;-0.844;2023-04-25T12:00:48;101030.84;;;14.93;31.04
62926;BME280;55732;52.248;-0.844;2023-04-25T12:03:13;101028.14;;;15.10;30.78
62926;BME280;55732;52.248;-0.844;2023-04-25T12:05:39;101028.63;;;15.13;30.86
62926;BME280;55732;52.248;-0.844;2023-04-25T12:08:15;101033.56;;;15.30;30.77
62926;BME280;55732;52.248;-0.844;2023-04-25T12:10:45;101033.88;;;15.45;30.35
62926;BME280;55732;52.248;-0.844;2023-04-25T12:13:26;101031.30;;;15.38;30.43
62926;BME280;55732;52.248;-0.844;2023-04-25T12:15:55;101036.67;;;15.36;30.12
62926;BME280;55732;52.248;-0.844;2023-04-25T12:18:24;101039.23;;;15.02;30.29
62926;BME280;55732;52.248;-0.844;2023-04-25T12:20:53;101040.94;;;14.78;30.38
62926;BME280;55732;52.248;-0.844;2023-04-25T12:23:25;101038.61;;;14.45;30.75
62926;BME280;55732;52.248;-0.844;2023-04-25T12:25:52;101034.60;;;14.18;31.22
62926;BME280;55732;52.248;-0.844;2023-04-25T12:33:19;101031.88;;;14.63;30.39
62926;BME280;55732;52.248;-0.844;2023-04-25T12:35:44;101034.29;;;14.86;31.11
62926;BME280;55732;52.248;-0.844;2023-04-25T12:38:09;101040.88;;;14.84;30.75
62926;BME280;55732;52.248;-0.844;2023-04-25T12:40:35;101041.73;;;14.52;30.37
62926;BME280;55732;52.248;-0.844;2023-04-25T12:43:01;101048.28;;;14.12;31.20
62926;BME280;55732;52.248;-0.844;2023-04-25T12:45:26;101047.73;;;14.16;31.80
62926;BME280;55732;52.248;-0.844;2023-04-25T12:47:51;101044.77;;;14.50;31.75
62926;BME280;55732;52.248;-0.844;2023-04-25T12:50:17;101047.79;;;14.84;31.28
62926;BME280;55732;52.248;-0.844;2023-04-25T12:52:42;101041.84;;;15.07;31.20
62926;BME280;55732;52.248;-0.844;2023-04-25T12:55:08;101045.59;;;15.32;31.45
62926;BME280;55732;52.248;-0.844;2023-04-25T12:57:33;101045.61;;;15.44;30.70
62926;BME280;55732;52.248;-0.844;2023-04-25T12:59:58;101044.05;;;15.42;30.72
62926;BME280;55732;52.248;-0.844;2023-04-25T13:02:24;101038.45;;;15.48;30.36
62926;BME280;55732;52.248;-0.844;2023-04-25T13:04:50;101033.45;;;15.51;30.24
62926;BME280;55732;52.248;-0.844;2023-04-25T13:07:16;101035.38;;;15.54;30.55